sensor_id;sensor_type;location;lat;lon;timestamp;P1;durP1;ratioP1;P2;durP2;ratioP2
7703;SDS011;3894;49.700;10.770;2023-05-10T00:00:10;10.75;;;4.65;;
7703;SDS011;3894;49.700;10.770;2023-05-10T00:02:37;9.02;;;4.53;;
7703;SDS011;3894;49.700;10.770;2023-05-10T00:05:02;10.45;;;5.20;;
7703;SDS011;3894;49.700;10.770;2023-05-10T00:07:28;8.68;;;4.15;;
7703;SDS011;3894;49.700;10.770;2023-05-10T00:09:54;9.43;;;4.95;;
7703;SDS011;3894;49.700;10.770;2023-05-10T00:12:19;9.98;;;4.10;;
7703;SDS011;3894;49.700;10.770;2023-05-10T00:14:45;9.35;;;4.35;;
7703;SDS011;3894;49.700;10.770;2023-05-10T00:17:11;9.48;;;3.97;;
7703;SDS011;3894;49.700;10.770;2023-05-10T00:19:36;7.80;;;3.60;;
7703;SDS011;3894;49.700;10.770;2023-05-10T00:22:02;7.80;;;4.10;;
7703;SDS011;3894;49.700;10.770;2023-05-10T00:24:28;9.30;;;4.10;;
7703;SDS011;3894;49.700;10.770;2023-05-10T00:26:53;6.65;;;3.25;;
7703;SDS011;3894;49.700;10.770;2023-05-10T00:29:19;9.02;;;4.07;;
7703;SDS011;3894;49.700;10.770;2023-05-10T00:31:45;6.95;;;3.15;;
7703;SDS011;3894;49.700;10.770;2023-05-10T00:34:10;6.05;;;2.72;;
7703;SDS011;3894;49.700;10.770;2023-05-10T00:36:36;7.03;;;2.90;;
7703;SDS011;3894;49.700;10.770;2023-05-10T00:39:01;7.97;;;2.97;;
7703;SDS011;3894;49.700;10.770;2023-05-10T00:41:28;7.63;;;3.45;;
7703;SDS011;3894;49.700;10.770;2023-05-10T00:43:54;8.07;;;3.17;;
7703;SDS011;3894;49.700;10.770;2023-05-10T00:46:19;6.57;;;3.28;;
7703;SDS011;3894;49.700;10.770;2023-05-10T00:48:46;6.57;;;2.88;;
7703;SDS011;3894;49.700;10.770;2023-05-10T00:51:12;6.85;;;2.80;;
7703;SDS011;3894;49.700;10.770;2023-05-10T00:53:39;6.85;;;3.00;;
7703;SDS011;3894;49.700;10.770;2023-05-10T00:56:05;7.53;;;2.45;;
7703;SDS011;3894;49.700;10.770;2023-05-10T00:58:31;8.00;;;3.40;;
7703;SDS011;3894;49.700;10.770;2023-05-10T01:00:57;7.07;;;3.40;;
7703;SDS011;3894;49.700;10.770;2023-05-10T01:03:23;7.43;;;3.17;;
7703;SDS011;3894;49.700;10.770;2023-05-10T01:05:49;6.05;;;2.80;;
7703;SDS011;3894;49.700;10.770;2023-05-10T01:08:15;9.27;;;3.05;;
7703;SDS011;3894;49.700;10.770;2023-05-10T01:10:41;6.43;;;2.30;;
7703;SDS011;3894;49.700;10.770;2023-05-10T01:13:07;5.80;;;2.00;;
7703;SDS011;3894;49.700;10.770;2023-05-10T01:15:34;7.05;;;2.75;;
7703;SDS011;3894;49.700;10.770;2023-05-10T01:18:00;7.32;;;2.53;;
7703;SDS011;3894;49.700;10.770;2023-05-10T01:20:28;6.70;;;3.10;;
7703;SDS011;3894;49.700;10.770;2023-05-10T01:34:16;5.88;;;2.15;;
7703;SDS011;3894;49.700;10.770;2023-05-10T01:36:54;6.60;;;2.53;;
7703;SDS011;3894;49.700;10.770;2023-05-10T01:39:25;6.05;;;2.25;;
7703;SDS011;3894;49.700;10.770;2023-05-10T01:41:55;6.30;;;2.08;;
7703;SDS011;3894;49.700;10.770;2023-05-10T01:47:09;4.90;;;2.20;;
7703;SDS011;3894;49.700;10.770;2023-05-10T01:49:45;4.93;;;1.90;;
7703;SDS011;3894;49.700;10.770;2023-05-10T01:52:18;5.07;;;1.90;;
7703;SDS011;3894;49.700;10.770;2023-05-10T01:54:49;5.93;;;2.63;;
7703;SDS011;3894;49.700;10.770;2023-05-10T01:57:19;6.88;;;1.92;;
7703;SDS011;3894;49.700;10.770;2023-05-10T01:59:47;5.47;;;2.17;;
7703;SDS011;3894;49.700;10.770;2023-05-10T02:02:17;7.97;;;2.63;;
7703;SDS011;3894;49.700;10.770;2023-05-10T02:04:45;5.63;;;2.15;;
7703;SDS011;3894;49.700;10.770;2023-05-10T02:07:12;6.70;;;2.85;;
7703;SDS011;3894;49.700;10.770;2023-05-10T02:09:39;6.45;;;2.65;;
7703;SDS011;3894;49.700;10.770;2023-05-10T02:12:07;5.43;;;2.38;;
7703;SDS011;3894;49.700;10.770;2023-05-10T02:14:34;7.50;;;2.42;;
7703;SDS011;3894;49.700;10.770;2023-05-10T02:17:02;7.10;;;2.83;;
7703;SDS011;3894;49.700;10.770;2023-05-10T02:19:30;8.82;;;2.50;;
7703;SDS011;3894;49.700;10.770;2023-05-10T02:21:57;7.50;;;1.50;;
7703;SDS011;3894;49.700;10.770;2023-05-10T02:24:25;4.85;;;1.42;;
7703;SDS011;3894;49.700;10.770;2023-05-10T02:26:53;4.40;;;1.10;;
7703;SDS011;3894;49.700;10.770;2023-05-10T02:31:52;4.53;;;0.85;;
7703;SDS011;3894;49.700;10.770;2023-05-10T02:34:20;3.58;;;0.40;;
7703;SDS011;3894;49.700;10.770;2023-05-10T02:36:47;3.38;;;0.40;;
7703;SDS011;3894;49.700;10.770;2023-05-10T02:39:15;4.00;;;0.65;;
7703;SDS011;3894;49.700;10.770;2023-05-10T02:41:44;2.80;;;0.50;;
7703;SDS011;3894;49.700;10.770;2023-05-10T02:44:11;2.90;;;0.38;;
7703;SDS011;3894;49.700;10.770;2023-05-10T02:46:40;2.78;;;0.40;;
7703;SDS011;3894;49.700;10.770;2023-05-10T02:49:06;2.28;;;0.85;;
7703;SDS011;3894;49.700;10.770;2023-05-10T02:51:32;2.17;;;0.30;;
7703;SDS011;3894;49.700;10.770;2023-05-10T02:54:07;1.92;;;0.22;;
7703;SDS011;3894;49.700;10.770;2023-05-10T02:56:42;3.03;;;0.60;;
7703;SDS011;3894;49.700;10.770;2023-05-10T02:59:14;3.28;;;0.30;;
7703;SDS011;3894;49.700;10.770;2023-05-10T03:01:39;1.58;;;0.22;;
7703;SDS011;3894;49.700;10.770;2023-05-10T03:04:05;2.63;;;0.22;;
7703;SDS011;3894;49.700;10.770;2023-05-10T03:06:32;2.67;;;0.65;;
7703;SDS011;3894;49.700;10.770;2023-05-10T03:08:58;1.63;;;0.20;;
7703;SDS011;3894;49.700;10.770;2023-05-10T03:11:43;1.85;;;0.22;;
7703;SDS011;3894;49.700;10.770;2023-05-10T03:20:06;2.35;;;0.30;;
7703;SDS011;3894;49.700;10.770;2023-05-10T03:22:44;5.70;;;1.92;;
7703;SDS011;3894;49.700;10.770;2023-05-10T03:25:12;4.88;;;0.70;;
7703;SDS011;3894;49.700;10.770;2023-05-10T03:27:41;2.60;;;0.30;;
7703;SDS011;3894;49.700;10.770;2023-05-10T03:30:09;1.83;;;0.30;;
7703;SDS011;3894;49.700;10.770;2023-05-10T03:32:36;2.38;;;0.30;;
7703;SDS011;3894;49.700;10.770;2023-05-10T03:35:07;1.92;;;0.20;;
7703;SDS011;3894;49.700;10.770;2023-05-10T03:37:34;1.88;;;0.10;;
7703;SDS011;3894;49.700;10.770;2023-05-10T03:40:00;1.30;;;0.25;;
7703;SDS011;3894;49.700;10.770;2023-05-10T03:42:27;2.85;;;0.80;;
7703;SDS011;3894;49.700;10.770;2023-05-10T03:44:53;3.50;;;0.80;;
7703;SDS011;3894;49.700;10.770;2023-05-10T03:47:20;2.72;;;0.43;;
7703;SDS011;3894;49.700;10.770;2023-05-10T03:49:46;3.25;;;0.40;;
7703;SDS011;3894;49.700;10.770;2023-05-10T03:52:11;2.95;;;0.40;;
7703;SDS011;3894;49.700;10.770;2023-05-10T03:54:37;3.20;;;0.47;;
7703;SDS011;3894;49.700;10.770;2023-05-10T03:57:03;5.25;;;1.35;;
7703;SDS011;3894;49.700;10.770;2023-05-10T03:59:28;5.85;;;1.00;;
7703;SDS011;3894;49.700;10.770;2023-05-10T04:01:54;5.32;;;0.98;;
7703;SDS011;3894;49.700;10.770;2023-05-10T04:04:20;2.42;;;0.40;;
7703;SDS011;3894;49.700;10.770;2023-05-10T04:06:46;3.00;;;0.43;;
7703;SDS011;3894;49.700;10.770;2023-05-10T04:09:12;4.30;;;0.70;;
7703;SDS011;3894;49.700;10.770;2023-05-10T04:11:38;7.43;;;1.95;;
7703;SDS011;3894;49.700;10.770;2023-05-10T04:14:04;5.63;;;1.05;;
7703;SDS011;3894;49.700;10.770;2023-05-10T04:16:29;9.27;;;2.17;;
7703;SDS011;3894;49.700;10.770;2023-05-10T04:18:55;8.20;;;1.52;;
7703;SDS011;3894;49.700;10.770;2023-05-10T04:21:21;12.18;;;3.08;;
7703;SDS011;3894;49.700;10.770;2023-05-10T04:23:46;7.00;;;1.30;;
7703;SDS011;3894;49.700;10.770;2023-05-10T04:26:12;6.78;;;2.15;;
7703;SDS011;3894;49.700;10.770;2023-05-10T04:28:38;7.07;;;1.33;;
7703;SDS011;3894;49.700;10.770;2023-05-10T04:31:06;7.03;;;2.17;;
7703;SDS011;3894;49.700;10.770;2023-05-10T04:33:34;6.47;;;1.38;;
7703;SDS011;3894;49.700;10.770;2023-05-10T04:36:00;7.38;;;2.63;;
7703;SDS011;3894;49.700;10.770;2023-05-10T04:38:26;3.85;;;0.85;;
7703;SDS011;3894;49.700;10.770;2023-05-10T04:40:52;4.60;;;1.33;;
7703;SDS011;3894;49.700;10.770;2023-05-10T04:43:18;6.10;;;1.35;;
7703;SDS011;3894;49.700;10.770;2023-05-10T04:45:44;4.07;;;1.00;;
7703;SDS011;3894;49.700;10.770;2023-05-10T04:48:10;4.80;;;1.10;;
7703;SDS011;3894;49.700;10.770;2023-05-10T04:50:36;5.82;;;1.35;;
7703;SDS011;3894;49.700;10.770;2023-05-10T04:53:02;6.10;;;1.65;;
7703;SDS011;3894;49.700;10.770;2023-05-10T04:55:31;5.45;;;1.58;;
7703;SDS011;3894;49.700;10.770;2023-05-10T04:57:57;6.35;;;1.73;;
7703;SDS011;3894;49.700;10.770;2023-05-10T05:00:23;6.88;;;1.95;;
7703;SDS011;3894;49.700;10.770;2023-05-10T05:02:49;5.70;;;1.35;;
7703;SDS011;3894;49.700;10.770;2023-05-10T05:05:15;4.10;;;0.82;;
7703;SDS011;3894;49.700;10.770;2023-05-10T05:07:41;4.57;;;0.93;;
7703;SDS011;3894;49.700;10.770;2023-05-10T05:10:07;2.78;;;0.40;;
7703;SDS011;3894;49.700;10.770;2023-05-10T05:12:35;3.35;;;0.98;;
7703;SDS011;3894;49.700;10.770;2023-05-10T05:15:04;2.60;;;0.40;;
7703;SDS011;3894;49.700;10.770;2023-05-10T05:17:30;2.65;;;0.40;;
7703;SDS011;3894;49.700;10.770;2023-05-10T05:19:56;1.55;;;0.20;;
7703;SDS011;3894;49.700;10.770;2023-05-10T05:22:22;3.08;;;0.40;;
7703;SDS011;3894;49.700;10.770;2023-05-10T05:24:53;1.95;;;0.22;;
7703;SDS011;3894;49.700;10.770;2023-05-10T05:27:19;3.75;;;0.43;;
7703;SDS011;3894;49.700;10.770;2023-05-10T05:29:52;2.97;;;0.55;;
7703;SDS011;3894;49.700;10.770;2023-05-10T05:32:18;2.80;;;0.40;;
7703;SDS011;3894;49.700;10.770;2023-05-10T05:34:44;4.03;;;0.88;;
7703;SDS011;3894;49.700;10.770;2023-05-10T05:37:17;4.30;;;1.15;;
7703;SDS011;3894;49.700;10.770;2023-05-10T05:39:44;4.10;;;1.50;;
7703;SDS011;3894;49.700;10.770;2023-05-10T05:42:10;2.47;;;0.52;;
7703;SDS011;3894;49.700;10.770;2023-05-10T05:44:37;2.85;;;0.63;;
7703;SDS011;3894;49.700;10.770;2023-05-10T05:47:03;2.42;;;0.50;;
7703;SDS011;3894;49.700;10.770;2023-05-10T05:49:29;3.17;;;0.55;;
7703;SDS011;3894;49.700;10.770;2023-05-10T05:51:58;3.22;;;0.90;;
7703;SDS011;3894;49.700;10.770;2023-05-10T05:54:28;3.58;;;0.47;;
7703;SDS011;3894;49.700;10.770;2023-05-10T05:56:54;3.13;;;0.40;;
7703;SDS011;3894;49.700;10.770;2023-05-10T05:59:21;2.95;;;0.40;;
7703;SDS011;3894;49.700;10.770;2023-05-10T06:01:47;2.25;;;0.38;;
7703;SDS011;3894;49.700;10.770;2023-05-10T06:04:13;2.45;;;0.40;;
7703;SDS011;3894;49.700;10.770;2023-05-10T06:06:38;2.38;;;0.32;;
7703;SDS011;3894;49.700;10.770;2023-05-10T06:09:04;2.50;;;0.40;;
7703;SDS011;3894;49.700;10.770;2023-05-10T06:11:29;3.90;;;0.50;;
7703;SDS011;3894;49.700;10.770;2023-05-10T06:13:57;3.55;;;0.73;;
7703;SDS011;3894;49.700;10.770;2023-05-10T06:16:23;3.50;;;0.65;;
7703;SDS011;3894;49.700;10.770;2023-05-10T06:18:48;3.15;;;0.65;;
7703;SDS011;3894;49.700;10.770;2023-05-10T06:21:14;3.17;;;0.70;;
7703;SDS011;3894;49.700;10.770;2023-05-10T06:23:41;2.78;;;0.52;;
7703;SDS011;3894;49.700;10.770;2023-05-10T06:26:06;3.45;;;0.50;;
7703;SDS011;3894;49.700;10.770;2023-05-10T06:28:32;2.22;;;0.52;;
7703;SDS011;3894;49.700;10.770;2023-05-10T06:30:58;2.38;;;0.40;;
7703;SDS011;3894;49.700;10.770;2023-05-10T06:33:24;2.72;;;0.40;;
7703;SDS011;3894;49.700;10.770;2023-05-10T06:35:50;2.80;;;0.60;;
7703;SDS011;3894;49.700;10.770;2023-05-10T06:38:15;3.65;;;0.77;;
7703;SDS011;3894;49.700;10.770;2023-05-10T06:40:41;2.78;;;0.60;;
7703;SDS011;3894;49.700;10.770;2023-05-10T06:43:07;3.20;;;0.68;;
7703;SDS011;3894;49.700;10.770;2023-05-10T06:45:33;2.03;;;0.28;;
7703;SDS011;3894;49.700;10.770;2023-05-10T06:47:59;2.80;;;0.63;;
7703;SDS011;3894;49.700;10.770;2023-05-10T06:50:24;3.90;;;0.45;;
7703;SDS011;3894;49.700;10.770;2023-05-10T06:52:50;4.32;;;0.70;;
7703;SDS011;3894;49.700;10.770;2023-05-10T06:55:15;2.53;;;0.32;;
7703;SDS011;3894;49.700;10.770;2023-05-10T06:57:41;2.67;;;0.60;;
7703;SDS011;3894;49.700;10.770;2023-05-10T07:00:07;4.85;;;0.63;;
7703;SDS011;3894;49.700;10.770;2023-05-10T07:02:34;4.25;;;0.43;;
7703;SDS011;3894;49.700;10.770;2023-05-10T07:05:00;3.42;;;0.60;;
7703;SDS011;3894;49.700;10.770;2023-05-10T07:07:26;3.53;;;0.50;;
7703;SDS011;3894;49.700;10.770;2023-05-10T07:09:51;2.42;;;0.40;;
7703;SDS011;3894;49.700;10.770;2023-05-10T07:12:17;5.38;;;0.52;;
7703;SDS011;3894;49.700;10.770;2023-05-10T07:14:43;3.10;;;0.70;;
7703;SDS011;3894;49.700;10.770;2023-05-10T07:17:09;2.88;;;0.40;;
7703;SDS011;3894;49.700;10.770;2023-05-10T07:19:35;3.47;;;0.52;;
7703;SDS011;3894;49.700;10.770;2023-05-10T07:22:00;3.13;;;0.40;;
7703;SDS011;3894;49.700;10.770;2023-05-10T07:24:26;2.53;;;0.45;;
7703;SDS011;3894;49.700;10.770;2023-05-10T07:26:52;1.88;;;0.30;;
7703;SDS011;3894;49.700;10.770;2023-05-10T07:29:17;2.92;;;0.60;;
7703;SDS011;3894;49.700;10.770;2023-05-10T07:31:43;2.95;;;0.73;;
7703;SDS011;3894;49.700;10.770;2023-05-10T07:34:08;3.00;;;0.50;;
7703;SDS011;3894;49.700;10.770;2023-05-10T07:36:36;3.63;;;0.50;;
7703;SDS011;3894;49.700;10.770;2023-05-10T07:39:02;2.28;;;0.40;;
7703;SDS011;3894;49.700;10.770;2023-05-10T07:41:27;2.70;;;0.40;;
7703;SDS011;3894;49.700;10.770;2023-05-10T07:43:53;3.75;;;0.38;;
7703;SDS011;3894;49.700;10.770;2023-05-10T07:46:20;3.42;;;0.60;;
7703;SDS011;3894;49.700;10.770;2023-05-10T07:48:45;3.30;;;0.80;;
7703;SDS011;3894;49.700;10.770;2023-05-10T07:51:11;2.70;;;0.50;;
7703;SDS011;3894;49.700;10.770;2023-05-10T07:53:37;2.55;;;0.50;;
7703;SDS011;3894;49.700;10.770;2023-05-10T07:58:49;2.90;;;0.60;;
7703;SDS011;3894;49.700;10.770;2023-05-10T08:01:15;8.23;;;3.17;;
7703;SDS011;3894;49.700;10.770;2023-05-10T08:03:40;3.38;;;1.10;;
7703;SDS011;3894;49.700;10.770;2023-05-10T08:06:06;3.60;;;0.70;;
7703;SDS011;3894;49.700;10.770;2023-05-10T08:08:32;3.25;;;0.80;;
7703;SDS011;3894;49.700;10.770;2023-05-10T08:10:59;5.05;;;1.02;;
7703;SDS011;3894;49.700;10.770;2023-05-10T08:13:24;2.65;;;0.60;;
7703;SDS011;3894;49.700;10.770;2023-05-10T08:15:50;3.63;;;0.70;;
7703;SDS011;3894;49.700;10.770;2023-05-10T08:18:17;3.85;;;0.85;;
7703;SDS011;3894;49.700;10.770;2023-05-10T08:20:43;9.45;;;0.85;;
7703;SDS011;3894;49.700;10.770;2023-05-10T08:23:09;3.60;;;0.88;;
7703;SDS011;3894;49.700;10.770;2023-05-10T08:25:35;3.90;;;1.00;;
7703;SDS011;3894;49.700;10.770;2023-05-10T08:28:00;3.53;;;0.70;;
7703;SDS011;3894;49.700;10.770;2023-05-10T08:30:26;3.25;;;0.73;;
7703;SDS011;3894;49.700;10.770;2023-05-10T08:32:52;3.45;;;0.77;;
7703;SDS011;3894;49.700;10.770;2023-05-10T08:35:17;2.53;;;0.40;;
7703;SDS011;3894;49.700;10.770;2023-05-10T08:37:43;2.80;;;0.50;;
7703;SDS011;3894;49.700;10.770;2023-05-10T08:40:08;4.45;;;0.70;;
7703;SDS011;3894;49.700;10.770;2023-05-10T08:42:38;3.83;;;0.70;;
7703;SDS011;3894;49.700;10.770;2023-05-10T08:45:06;4.47;;;0.70;;
7703;SDS011;3894;49.700;10.770;2023-05-10T08:47:35;3.50;;;0.88;;
7703;SDS011;3894;49.700;10.770;2023-05-10T08:50:02;8.00;;;2.75;;
7703;SDS011;3894;49.700;10.770;2023-05-10T08:52:28;4.05;;;1.33;;
7703;SDS011;3894;49.700;10.770;2023-05-10T08:54:55;2.95;;;0.75;;
7703;SDS011;3894;49.700;10.770;2023-05-10T08:57:21;3.60;;;0.57;;
7703;SDS011;3894;49.700;10.770;2023-05-10T08:59:47;2.33;;;0.50;;
7703;SDS011;3894;49.700;10.770;2023-05-10T09:02:13;3.13;;;0.55;;
7703;SDS011;3894;49.700;10.770;2023-05-10T09:04:39;6.25;;;0.70;;
7703;SDS011;3894;49.700;10.770;2023-05-10T09:07:05;3.90;;;0.70;;
7703;SDS011;3894;49.700;10.770;2023-05-10T09:09:31;2.67;;;0.80;;
7703;SDS011;3894;49.700;10.770;2023-05-10T09:11:58;3.30;;;0.70;;
7703;SDS011;3894;49.700;10.770;2023-05-10T09:14:25;3.50;;;0.93;;
7703;SDS011;3894;49.700;10.770;2023-05-10T09:16:52;6.82;;;2.55;;
7703;SDS011;3894;49.700;10.770;2023-05-10T09:19:20;4.35;;;1.75;;
7703;SDS011;3894;49.700;10.770;2023-05-10T09:21:45;3.65;;;1.00;;
7703;SDS011;3894;49.700;10.770;2023-05-10T09:24:11;3.72;;;0.88;;
7703;SDS011;3894;49.700;10.770;2023-05-10T09:26:45;4.50;;;0.90;;
7703;SDS011;3894;49.700;10.770;2023-05-10T09:29:14;4.00;;;0.75;;
7703;SDS011;3894;49.700;10.770;2023-05-10T09:31:43;3.95;;;0.95;;
7703;SDS011;3894;49.700;10.770;2023-05-10T09:34:19;1.98;;;0.40;;
7703;SDS011;3894;49.700;10.770;2023-05-10T09:36:57;4.15;;;0.82;;
7703;SDS011;3894;49.700;10.770;2023-05-10T09:39:35;2.33;;;0.40;;
7703;SDS011;3894;49.700;10.770;2023-05-10T09:42:03;4.22;;;0.70;;
7703;SDS011;3894;49.700;10.770;2023-05-10T09:44:31;2.53;;;0.45;;
7703;SDS011;3894;49.700;10.770;2023-05-10T09:46:57;2.95;;;0.63;;
7703;SDS011;3894;49.700;10.770;2023-05-10T09:49:23;5.65;;;0.68;;
7703;SDS011;3894;49.700;10.770;2023-05-10T09:54:28;2.35;;;0.60;;
7703;SDS011;3894;49.700;10.770;2023-05-10T09:56:54;2.45;;;0.30;;
7703;SDS011;3894;49.700;10.770;2023-05-10T09:59:20;2.88;;;0.40;;
7703;SDS011;3894;49.700;10.770;2023-05-10T10:01:49;2.13;;;0.35;;
7703;SDS011;3894;49.700;10.770;2023-05-10T10:04:15;3.50;;;0.50;;
7703;SDS011;3894;49.700;10.770;2023-05-10T10:06:41;5.15;;;0.50;;
7703;SDS011;3894;49.700;10.770;2023-05-10T10:09:07;3.10;;;0.30;;
7703;SDS011;3894;49.700;10.770;2023-05-10T10:11:34;2.45;;;0.45;;
7703;SDS011;3894;49.700;10.770;2023-05-10T10:16:29;3.63;;;0.65;;
7703;SDS011;3894;49.700;10.770;2023-05-10T10:18:56;1.95;;;0.30;;
7703;SDS011;3894;49.700;10.770;2023-05-10T10:21:22;2.67;;;0.40;;
7703;SDS011;3894;49.700;10.770;2023-05-10T10:23:48;3.42;;;0.75;;
7703;SDS011;3894;49.700;10.770;2023-05-10T10:26:14;3.53;;;0.50;;
7703;SDS011;3894;49.700;10.770;2023-05-10T10:31:32;3.60;;;0.30;;
7703;SDS011;3894;49.700;10.770;2023-05-10T10:34:27;3.88;;;0.88;;
7703;SDS011;3894;49.700;10.770;2023-05-10T10:36:54;2.45;;;0.30;;
7703;SDS011;3894;49.700;10.770;2023-05-10T10:41:51;4.72;;;0.90;;
7703;SDS011;3894;49.700;10.770;2023-05-10T10:52:24;3.47;;;0.80;;
7703;SDS011;3894;49.700;10.770;2023-05-10T10:57:25;2.65;;;0.85;;
7703;SDS011;3894;49.700;10.770;2023-05-10T11:00:40;2.67;;;0.80;;
7703;SDS011;3894;49.700;10.770;2023-05-10T11:02:44;2.38;;;0.40;;
7703;SDS011;3894;49.700;10.770;2023-05-10T11:06:17;4.25;;;0.50;;
7703;SDS011;3894;49.700;10.770;2023-05-10T11:08:19;4.18;;;0.43;;
7703;SDS011;3894;49.700;10.770;2023-05-10T11:11:13;3.20;;;0.50;;
7703;SDS011;3894;49.700;10.770;2023-05-10T11:13:40;3.35;;;1.05;;
7703;SDS011;3894;49.700;10.770;2023-05-10T11:16:12;2.80;;;0.70;;
7703;SDS011;3894;49.700;10.770;2023-05-10T11:18:37;3.70;;;0.75;;
7703;SDS011;3894;49.700;10.770;2023-05-10T11:21:03;4.00;;;0.80;;
7703;SDS011;3894;49.700;10.770;2023-05-10T11:23:32;3.00;;;0.63;;
7703;SDS011;3894;49.700;10.770;2023-05-10T11:26:06;4.32;;;1.00;;
7703;SDS011;3894;49.700;10.770;2023-05-10T11:28:34;4.32;;;0.85;;
7703;SDS011;3894;49.700;10.770;2023-05-10T11:31:10;3.95;;;1.00;;
7703;SDS011;3894;49.700;10.770;2023-05-10T11:33:44;3.78;;;0.93;;
7703;SDS011;3894;49.700;10.770;2023-05-10T11:36:12;3.83;;;0.85;;
7703;SDS011;3894;49.700;10.770;2023-05-10T11:38:51;4.40;;;0.80;;
7703;SDS011;3894;49.700;10.770;2023-05-10T11:41:18;3.65;;;0.90;;
7703;SDS011;3894;49.700;10.770;2023-05-10T11:43:51;4.35;;;1.08;;
7703;SDS011;3894;49.700;10.770;2023-05-10T11:46:18;3.47;;;0.80;;
7703;SDS011;3894;49.700;10.770;2023-05-10T11:48:49;4.53;;;0.95;;
7703;SDS011;3894;49.700;10.770;2023-05-10T11:51:19;4.40;;;0.60;;
7703;SDS011;3894;49.700;10.770;2023-05-10T11:53:46;3.42;;;0.73;;
7703;SDS011;3894;49.700;10.770;2023-05-10T11:56:11;2.40;;;0.50;;
7703;SDS011;3894;49.700;10.770;2023-05-10T11:58:38;3.63;;;0.60;;
7703;SDS011;3894;49.700;10.770;2023-05-10T12:01:05;3.08;;;0.60;;
7703;SDS011;3894;49.700;10.770;2023-05-10T12:03:32;3.20;;;0.40;;
7703;SDS011;3894;49.700;10.770;2023-05-10T12:05:58;3.25;;;0.85;;
7703;SDS011;3894;49.700;10.770;2023-05-10T12:08:25;3.17;;;0.70;;
7703;SDS011;3894;49.700;10.770;2023-05-10T12:10:52;2.50;;;0.47;;
7703;SDS011;3894;49.700;10.770;2023-05-10T12:13:19;3.38;;;0.57;;
7703;SDS011;3894;49.700;10.770;2023-05-10T12:15:46;3.45;;;0.68;;
7703;SDS011;3894;49.700;10.770;2023-05-10T12:18:12;7.28;;;2.60;;
7703;SDS011;3894;49.700;10.770;2023-05-10T12:20:39;5.90;;;1.13;;
7703;SDS011;3894;49.700;10.770;2023-05-10T12:23:07;6.03;;;1.00;;
7703;SDS011;3894;49.700;10.770;2023-05-10T12:25:34;3.40;;;0.90;;
7703;SDS011;3894;49.700;10.770;2023-05-10T12:28:03;3.70;;;0.90;;
7703;SDS011;3894;49.700;10.770;2023-05-10T12:30:31;4.25;;;0.93;;
7703;SDS011;3894;49.700;10.770;2023-05-10T12:33:10;3.75;;;0.90;;
7703;SDS011;3894;49.700;10.770;2023-05-10T12:38:30;3.47;;;0.82;;
7703;SDS011;3894;49.700;10.770;2023-05-10T12:41:03;2.60;;;0.50;;
7703;SDS011;3894;49.700;10.770;2023-05-10T12:43:30;4.03;;;0.60;;
7703;SDS011;3894;49.700;10.770;2023-05-10T12:45:57;3.20;;;1.38;;
7703;SDS011;3894;49.700;10.770;2023-05-10T12:48:23;5.68;;;1.73;;
7703;SDS011;3894;49.700;10.770;2023-05-10T12:50:49;3.30;;;0.85;;
7703;SDS011;3894;49.700;10.770;2023-05-10T12:53:15;2.67;;;0.40;;
7703;SDS011;3894;49.700;10.770;2023-05-10T12:55:41;2.70;;;0.57;;
7703;SDS011;3894;49.700;10.770;2023-05-10T12:58:08;3.42;;;0.55;;
7703;SDS011;3894;49.700;10.770;2023-05-10T13:00:33;2.55;;;0.40;;
7703;SDS011;3894;49.700;10.770;2023-05-10T13:02:59;2.95;;;0.40;;
7703;SDS011;3894;49.700;10.770;2023-05-10T13:05:25;2.92;;;0.40;;
7703;SDS011;3894;49.700;10.770;2023-05-10T13:07:50;2.78;;;0.50;;
7703;SDS011;3894;49.700;10.770;2023-05-10T13:10:16;2.97;;;0.40;;
7703;SDS011;3894;49.700;10.770;2023-05-10T13:12:41;2.38;;;0.50;;
7703;SDS011;3894;49.700;10.770;2023-05-10T13:15:07;2.90;;;0.30;;
7703;SDS011;3894;49.700;10.770;2023-05-10T13:17:33;3.13;;;0.38;;
7703;SDS011;3894;49.700;10.770;2023-05-10T13:19:58;3.58;;;0.40;;
7703;SDS011;3894;49.700;10.770;2023-05-10T13:22:24;1.95;;;0.30;;
7703;SDS011;3894;49.700;10.770;2023-05-10T13:24:51;2.72;;;0.45;;
7703;SDS011;3894;49.700;10.770;2023-05-10T13:27:17;2.88;;;0.40;;
7703;SDS011;3894;49.700;10.770;2023-05-10T13:29:42;2.58;;;0.45;;
7703;SDS011;3894;49.700;10.770;2023-05-10T13:32:08;2.95;;;0.40;;
7703;SDS011;3894;49.700;10.770;2023-05-10T13:34:33;2.70;;;0.38;;
7703;SDS011;3894;49.700;10.770;2023-05-10T13:37:00;2.55;;;0.30;;
7703;SDS011;3894;49.700;10.770;2023-05-10T13:39:26;2.80;;;0.20;;
7703;SDS011;3894;49.700;10.770;2023-05-10T13:41:52;2.65;;;0.22;;
7703;SDS011;3894;49.700;10.770;2023-05-10T13:44:17;2.78;;;0.50;;
7703;SDS011;3894;49.700;10.770;2023-05-10T13:46:43;1.95;;;0.25;;
7703;SDS011;3894;49.700;10.770;2023-05-10T13:49:09;3.22;;;0.40;;
7703;SDS011;3894;49.700;10.770;2023-05-10T13:51:35;2.95;;;0.30;;
7703;SDS011;3894;49.700;10.770;2023-05-10T13:54:01;1.92;;;0.32;;
7703;SDS011;3894;49.700;10.770;2023-05-10T13:56:27;2.97;;;0.40;;
7703;SDS011;3894;49.700;10.770;2023-05-10T13:58:53;2.80;;;0.45;;
7703;SDS011;3894;49.700;10.770;2023-05-10T14:01:19;1.88;;;0.45;;
7703;SDS011;3894;49.700;10.770;2023-05-10T14:03:44;2.75;;;0.40;;
7703;SDS011;3894;49.700;10.770;2023-05-10T14:06:10;3.40;;;0.50;;
7703;SDS011;3894;49.700;10.770;2023-05-10T14:08:35;4.70;;;1.00;;
7703;SDS011;3894;49.700;10.770;2023-05-10T14:11:01;5.90;;;1.52;;
7703;SDS011;3894;49.700;10.770;2023-05-10T14:13:27;6.97;;;1.33;;
7703;SDS011;3894;49.700;10.770;2023-05-10T14:15:53;4.00;;;0.95;;
7703;SDS011;3894;49.700;10.770;2023-05-10T14:18:19;4.93;;;1.13;;
7703;SDS011;3894;49.700;10.770;2023-05-10T14:20:45;3.50;;;0.77;;
7703;SDS011;3894;49.700;10.770;2023-05-10T14:23:11;2.83;;;0.88;;
7703;SDS011;3894;49.700;10.770;2023-05-10T14:25:37;2.80;;;0.50;;
7703;SDS011;3894;49.700;10.770;2023-05-10T14:30:30;3.25;;;0.82;;
7703;SDS011;3894;49.700;10.770;2023-05-10T14:32:56;3.33;;;0.70;;
7703;SDS011;3894;49.700;10.770;2023-05-10T14:35:23;4.93;;;0.75;;
7703;SDS011;3894;49.700;10.770;2023-05-10T14:37:48;5.05;;;0.90;;
7703;SDS011;3894;49.700;10.770;2023-05-10T14:40:14;4.00;;;1.00;;
7703;SDS011;3894;49.700;10.770;2023-05-10T14:42:40;4.93;;;1.30;;
7703;SDS011;3894;49.700;10.770;2023-05-10T14:45:07;6.28;;;1.30;;
7703;SDS011;3894;49.700;10.770;2023-05-10T14:47:33;2.95;;;0.60;;
7703;SDS011;3894;49.700;10.770;2023-05-10T14:49:59;3.08;;;0.60;;
7703;SDS011;3894;49.700;10.770;2023-05-10T14:52:25;2.80;;;0.45;;
7703;SDS011;3894;49.700;10.770;2023-05-10T14:54:50;2.60;;;0.60;;
7703;SDS011;3894;49.700;10.770;2023-05-10T14:57:16;2.75;;;0.43;;
7703;SDS011;3894;49.700;10.770;2023-05-10T14:59:42;3.30;;;0.50;;
7703;SDS011;3894;49.700;10.770;2023-05-10T15:02:08;1.98;;;0.30;;
7703;SDS011;3894;49.700;10.770;2023-05-10T15:04:34;2.28;;;0.40;;
7703;SDS011;3894;49.700;10.770;2023-05-10T15:07:00;3.58;;;1.38;;
7703;SDS011;3894;49.700;10.770;2023-05-10T15:09:25;3.03;;;0.60;;
7703;SDS011;3894;49.700;10.770;2023-05-10T15:11:52;2.75;;;0.65;;
7703;SDS011;3894;49.700;10.770;2023-05-10T15:14:18;3.28;;;0.47;;
7703;SDS011;3894;49.700;10.770;2023-05-10T15:16:43;2.75;;;0.68;;
7703;SDS011;3894;49.700;10.770;2023-05-10T15:19:09;4.28;;;0.60;;
7703;SDS011;3894;49.700;10.770;2023-05-10T15:21:35;3.55;;;1.42;;
7703;SDS011;3894;49.700;10.770;2023-05-10T15:24:04;4.75;;;1.02;;
7703;SDS011;3894;49.700;10.770;2023-05-10T15:26:30;3.80;;;0.98;;
7703;SDS011;3894;49.700;10.770;2023-05-10T15:28:56;3.17;;;0.77;;
7703;SDS011;3894;49.700;10.770;2023-05-10T15:31:22;4.97;;;1.17;;
7703;SDS011;3894;49.700;10.770;2023-05-10T15:33:47;6.57;;;1.40;;
7703;SDS011;3894;49.700;10.770;2023-05-10T15:36:13;3.90;;;1.30;;
7703;SDS011;3894;49.700;10.770;2023-05-10T15:38:38;3.30;;;0.80;;
7703;SDS011;3894;49.700;10.770;2023-05-10T15:41:04;3.60;;;0.93;;
7703;SDS011;3894;49.700;10.770;2023-05-10T15:43:29;3.88;;;1.02;;
7703;SDS011;3894;49.700;10.770;2023-05-10T15:45:55;4.07;;;1.00;;
7703;SDS011;3894;49.700;10.770;2023-05-10T15:48:24;4.20;;;0.80;;
7703;SDS011;3894;49.700;10.770;2023-05-10T15:50:50;4.15;;;1.00;;